sensor_id;sensor_type;location;lat;lon;timestamp;P1;durP1;ratioP1;P2;durP2;ratioP2
18689;SDS011;9782;52.930;15.562;2023-03-05T00:00:39;9.17;;;4.07;;
18689;SDS011;9782;52.930;15.562;2023-03-05T00:03:06;8.97;;;4.10;;
18689;SDS011;9782;52.930;15.562;2023-03-05T00:05:33;9.80;;;4.10;;
18689;SDS011;9782;52.930;15.562;2023-03-05T00:08:00;8.27;;;4.50;;
18689;SDS011;9782;52.930;15.562;2023-03-05T00:10:27;9.13;;;4.57;;
18689;SDS011;9782;52.930;15.562;2023-03-05T00:12:55;12.37;;;5.57;;
18689;SDS011;9782;52.930;15.562;2023-03-05T00:15:22;15.30;;;9.20;;
18689;SDS011;9782;52.930;15.562;2023-03-05T00:17:49;15.83;;;7.33;;
18689;SDS011;9782;52.930;15.562;2023-03-05T00:20:15;15.77;;;8.60;;
18689;SDS011;9782;52.930;15.562;2023-03-05T00:22:42;27.13;;;13.53;;
18689;SDS011;9782;52.930;15.562;2023-03-05T00:25:09;23.57;;;11.50;;
18689;SDS011;9782;52.930;15.562;2023-03-05T00:27:36;20.03;;;10.07;;
18689;SDS011;9782;52.930;15.562;2023-03-05T00:30:05;18.50;;;10.13;;
18689;SDS011;9782;52.930;15.562;2023-03-05T00:32:33;14.43;;;7.97;;
18689;SDS011;9782;52.930;15.562;2023-03-05T00:35:00;10.80;;;5.97;;
18689;SDS011;9782;52.930;15.562;2023-03-05T00:37:27;13.47;;;6.47;;
18689;SDS011;9782;52.930;15.562;2023-03-05T00:39:54;13.43;;;6.77;;
18689;SDS011;9782;52.930;15.562;2023-03-05T00:42:21;14.17;;;7.27;;
18689;SDS011;9782;52.930;15.562;2023-03-05T00:44:47;15.87;;;6.60;;
18689;SDS011;9782;52.930;15.562;2023-03-05T00:47:16;13.63;;;6.60;;
18689;SDS011;9782;52.930;15.562;2023-03-05T00:49:43;14.73;;;6.90;;
18689;SDS011;9782;52.930;15.562;2023-03-05T00:52:10;14.40;;;7.57;;
18689;SDS011;9782;52.930;15.562;2023-03-05T00:54:37;14.80;;;6.90;;
18689;SDS011;9782;52.930;15.562;2023-03-05T00:57:03;15.63;;;7.40;;
18689;SDS011;9782;52.930;15.562;2023-03-05T00:59:30;13.20;;;7.00;;
18689;SDS011;9782;52.930;15.562;2023-03-05T01:01:57;14.63;;;6.43;;
18689;SDS011;9782;52.930;15.562;2023-03-05T01:04:25;12.30;;;5.87;;
18689;SDS011;9782;52.930;15.562;2023-03-05T01:06:52;10.90;;;5.07;;
18689;SDS011;9782;52.930;15.562;2023-03-05T01:09:19;10.77;;;4.50;;
18689;SDS011;9782;52.930;15.562;2023-03-05T01:11:49;12.57;;;4.20;;
18689;SDS011;9782;52.930;15.562;2023-03-05T01:14:16;10.77;;;4.33;;
18689;SDS011;9782;52.930;15.562;2023-03-05T01:16:43;9.57;;;3.60;;
18689;SDS011;9782;52.930;15.562;2023-03-05T01:19:10;8.67;;;3.27;;
18689;SDS011;9782;52.930;15.562;2023-03-05T01:21:39;7.33;;;3.80;;
18689;SDS011;9782;52.930;15.562;2023-03-05T01:24:06;8.00;;;3.60;;
18689;SDS011;9782;52.930;15.562;2023-03-05T01:26:33;6.83;;;3.87;;
18689;SDS011;9782;52.930;15.562;2023-03-05T01:29:00;8.07;;;3.77;;
18689;SDS011;9782;52.930;15.562;2023-03-05T01:31:27;9.03;;;4.13;;
18689;SDS011;9782;52.930;15.562;2023-03-05T01:33:54;8.10;;;4.10;;
18689;SDS011;9782;52.930;15.562;2023-03-05T01:36:21;10.13;;;4.13;;
18689;SDS011;9782;52.930;15.562;2023-03-05T01:38:50;8.07;;;4.27;;
18689;SDS011;9782;52.930;15.562;2023-03-05T01:41:18;7.50;;;3.97;;
18689;SDS011;9782;52.930;15.562;2023-03-05T01:43:45;7.63;;;4.00;;
18689;SDS011;9782;52.930;15.562;2023-03-05T01:49:03;10.13;;;4.40;;
18689;SDS011;9782;52.930;15.562;2023-03-05T01:51:34;10.33;;;4.37;;
18689;SDS011;9782;52.930;15.562;2023-03-05T01:54:06;8.57;;;4.47;;
18689;SDS011;9782;52.930;15.562;2023-03-05T01:56:36;7.40;;;4.10;;
18689;SDS011;9782;52.930;15.562;2023-03-05T01:59:04;8.30;;;3.90;;
18689;SDS011;9782;52.930;15.562;2023-03-05T02:01:33;9.03;;;4.30;;
18689;SDS011;9782;52.930;15.562;2023-03-05T02:04:04;7.23;;;4.33;;
18689;SDS011;9782;52.930;15.562;2023-03-05T02:06:31;10.63;;;5.00;;
18689;SDS011;9782;52.930;15.562;2023-03-05T02:08:59;10.37;;;4.37;;
18689;SDS011;9782;52.930;15.562;2023-03-05T02:11:27;6.83;;;4.03;;
18689;SDS011;9782;52.930;15.562;2023-03-05T02:13:54;8.57;;;4.70;;
18689;SDS011;9782;52.930;15.562;2023-03-05T02:16:22;7.47;;;4.20;;
18689;SDS011;9782;52.930;15.562;2023-03-05T02:18:48;8.30;;;4.30;;
18689;SDS011;9782;52.930;15.562;2023-03-05T02:21:20;7.87;;;4.60;;
18689;SDS011;9782;52.930;15.562;2023-03-05T02:23:53;8.97;;;4.37;;
18689;SDS011;9782;52.930;15.562;2023-03-05T02:26:20;8.10;;;4.23;;
18689;SDS011;9782;52.930;15.562;2023-03-05T02:28:48;7.17;;;4.03;;
18689;SDS011;9782;52.930;15.562;2023-03-05T02:31:20;8.43;;;4.30;;
18689;SDS011;9782;52.930;15.562;2023-03-05T02:33:49;8.80;;;4.63;;
18689;SDS011;9782;52.930;15.562;2023-03-05T02:36:18;15.27;;;6.97;;
18689;SDS011;9782;52.930;15.562;2023-03-05T02:38:47;19.50;;;7.57;;
18689;SDS011;9782;52.930;15.562;2023-03-05T02:41:14;15.20;;;7.27;;
18689;SDS011;9782;52.930;15.562;2023-03-05T02:43:41;16.93;;;6.53;;
18689;SDS011;9782;52.930;15.562;2023-03-05T02:46:08;15.37;;;6.07;;
18689;SDS011;9782;52.930;15.562;2023-03-05T02:48:35;19.87;;;7.13;;
18689;SDS011;9782;52.930;15.562;2023-03-05T02:51:02;23.70;;;7.93;;
18689;SDS011;9782;52.930;15.562;2023-03-05T02:53:31;20.77;;;7.23;;
18689;SDS011;9782;52.930;15.562;2023-03-05T02:55:58;17.17;;;7.00;;
18689;SDS011;9782;52.930;15.562;2023-03-05T02:58:25;15.03;;;6.20;;
18689;SDS011;9782;52.930;15.562;2023-03-05T03:00:52;18.87;;;5.93;;
18689;SDS011;9782;52.930;15.562;2023-03-05T03:03:19;12.83;;;5.20;;
18689;SDS011;9782;52.930;15.562;2023-03-05T03:05:45;10.10;;;4.97;;
18689;SDS011;9782;52.930;15.562;2023-03-05T03:08:12;7.50;;;4.07;;
18689;SDS011;9782;52.930;15.562;2023-03-05T03:10:41;8.07;;;3.93;;
18689;SDS011;9782;52.930;15.562;2023-03-05T03:13:08;11.97;;;4.27;;
18689;SDS011;9782;52.930;15.562;2023-03-05T03:15:34;7.67;;;4.03;;
18689;SDS011;9782;52.930;15.562;2023-03-05T03:18:02;11.87;;;4.40;;
18689;SDS011;9782;52.930;15.562;2023-03-05T03:20:29;10.00;;;4.30;;
18689;SDS011;9782;52.930;15.562;2023-03-05T03:22:56;7.37;;;3.83;;
18689;SDS011;9782;52.930;15.562;2023-03-05T03:25:23;8.07;;;4.00;;
18689;SDS011;9782;52.930;15.562;2023-03-05T03:27:51;11.20;;;4.37;;
18689;SDS011;9782;52.930;15.562;2023-03-05T03:30:18;8.07;;;4.07;;
18689;SDS011;9782;52.930;15.562;2023-03-05T03:32:45;6.73;;;3.93;;
18689;SDS011;9782;52.930;15.562;2023-03-05T03:35:12;12.23;;;4.57;;
18689;SDS011;9782;52.930;15.562;2023-03-05T03:37:39;9.83;;;4.43;;
18689;SDS011;9782;52.930;15.562;2023-03-05T03:40:06;9.77;;;4.63;;
18689;SDS011;9782;52.930;15.562;2023-03-05T03:42:34;9.70;;;4.00;;
18689;SDS011;9782;52.930;15.562;2023-03-05T03:45:02;6.33;;;3.53;;
18689;SDS011;9782;52.930;15.562;2023-03-05T03:47:30;7.83;;;3.70;;
18689;SDS011;9782;52.930;15.562;2023-03-05T03:49:56;10.27;;;4.33;;
18689;SDS011;9782;52.930;15.562;2023-03-05T03:52:23;6.43;;;3.67;;
18689;SDS011;9782;52.930;15.562;2023-03-05T03:54:51;8.43;;;3.57;;
18689;SDS011;9782;52.930;15.562;2023-03-05T03:57:19;8.00;;;3.30;;
18689;SDS011;9782;52.930;15.562;2023-03-05T03:59:46;7.77;;;3.57;;
18689;SDS011;9782;52.930;15.562;2023-03-05T04:02:15;7.67;;;3.20;;
18689;SDS011;9782;52.930;15.562;2023-03-05T04:04:42;6.90;;;3.30;;
18689;SDS011;9782;52.930;15.562;2023-03-05T04:07:09;7.90;;;3.30;;
18689;SDS011;9782;52.930;15.562;2023-03-05T04:09:36;9.80;;;4.67;;
18689;SDS011;9782;52.930;15.562;2023-03-05T04:12:03;7.87;;;3.53;;
18689;SDS011;9782;52.930;15.562;2023-03-05T04:14:30;4.43;;;2.40;;
18689;SDS011;9782;52.930;15.562;2023-03-05T04:16:57;5.00;;;2.70;;
18689;SDS011;9782;52.930;15.562;2023-03-05T04:19:25;5.47;;;2.80;;
18689;SDS011;9782;52.930;15.562;2023-03-05T04:21:54;11.07;;;3.40;;
18689;SDS011;9782;52.930;15.562;2023-03-05T04:24:21;8.30;;;3.70;;
18689;SDS011;9782;52.930;15.562;2023-03-05T04:26:48;6.50;;;3.27;;
18689;SDS011;9782;52.930;15.562;2023-03-05T04:29:15;5.30;;;2.57;;
18689;SDS011;9782;52.930;15.562;2023-03-05T04:31:41;8.37;;;3.80;;
18689;SDS011;9782;52.930;15.562;2023-03-05T04:34:08;10.93;;;3.90;;
18689;SDS011;9782;52.930;15.562;2023-03-05T04:36:36;7.67;;;3.03;;
18689;SDS011;9782;52.930;15.562;2023-03-05T04:39:03;5.50;;;2.77;;
18689;SDS011;9782;52.930;15.562;2023-03-05T04:41:30;6.20;;;2.80;;
18689;SDS011;9782;52.930;15.562;2023-03-05T04:43:57;6.87;;;3.00;;
18689;SDS011;9782;52.930;15.562;2023-03-05T04:46:24;6.20;;;2.83;;
18689;SDS011;9782;52.930;15.562;2023-03-05T04:48:50;11.13;;;4.10;;
18689;SDS011;9782;52.930;15.562;2023-03-05T04:51:17;9.87;;;4.00;;
18689;SDS011;9782;52.930;15.562;2023-03-05T04:53:45;6.80;;;3.50;;
18689;SDS011;9782;52.930;15.562;2023-03-05T04:56:12;8.73;;;3.87;;
18689;SDS011;9782;52.930;15.562;2023-03-05T04:58:39;5.20;;;2.87;;
18689;SDS011;9782;52.930;15.562;2023-03-05T05:01:06;6.97;;;3.37;;
18689;SDS011;9782;52.930;15.562;2023-03-05T05:03:33;5.87;;;2.40;;
18689;SDS011;9782;52.930;15.562;2023-03-05T05:06:00;7.30;;;2.83;;
18689;SDS011;9782;52.930;15.562;2023-03-05T05:08:27;6.43;;;3.20;;
18689;SDS011;9782;52.930;15.562;2023-03-05T05:10:56;6.33;;;3.40;;
18689;SDS011;9782;52.930;15.562;2023-03-05T05:13:24;7.20;;;3.30;;
18689;SDS011;9782;52.930;15.562;2023-03-05T05:15:51;3.53;;;2.20;;
18689;SDS011;9782;52.930;15.562;2023-03-05T05:18:18;3.83;;;2.40;;
18689;SDS011;9782;52.930;15.562;2023-03-05T05:20:45;4.43;;;2.57;;
18689;SDS011;9782;52.930;15.562;2023-03-05T05:23:12;7.93;;;2.73;;
18689;SDS011;9782;52.930;15.562;2023-03-05T05:25:40;7.63;;;3.60;;
18689;SDS011;9782;52.930;15.562;2023-03-05T05:28:08;10.20;;;4.27;;
18689;SDS011;9782;52.930;15.562;2023-03-05T05:30:36;7.53;;;3.77;;
18689;SDS011;9782;52.930;15.562;2023-03-05T05:33:03;7.43;;;3.60;;
18689;SDS011;9782;52.930;15.562;2023-03-05T05:35:30;6.70;;;3.27;;
18689;SDS011;9782;52.930;15.562;2023-03-05T05:37:57;9.27;;;3.40;;
18689;SDS011;9782;52.930;15.562;2023-03-05T05:40:23;4.50;;;2.83;;
18689;SDS011;9782;52.930;15.562;2023-03-05T05:42:50;6.20;;;3.17;;
18689;SDS011;9782;52.930;15.562;2023-03-05T05:45:19;5.90;;;2.90;;
18689;SDS011;9782;52.930;15.562;2023-03-05T05:47:45;6.10;;;2.83;;
18689;SDS011;9782;52.930;15.562;2023-03-05T05:50:12;9.43;;;3.90;;
18689;SDS011;9782;52.930;15.562;2023-03-05T05:52:40;13.80;;;6.27;;
18689;SDS011;9782;52.930;15.562;2023-03-05T05:55:07;9.33;;;5.57;;
18689;SDS011;9782;52.930;15.562;2023-03-05T05:57:35;11.30;;;4.10;;
18689;SDS011;9782;52.930;15.562;2023-03-05T06:00:02;6.87;;;3.20;;
18689;SDS011;9782;52.930;15.562;2023-03-05T06:02:32;5.97;;;2.23;;
18689;SDS011;9782;52.930;15.562;2023-03-05T06:04:59;7.27;;;3.13;;
18689;SDS011;9782;52.930;15.562;2023-03-05T06:07:26;7.77;;;3.10;;
18689;SDS011;9782;52.930;15.562;2023-03-05T06:09:52;6.60;;;3.00;;
18689;SDS011;9782;52.930;15.562;2023-03-05T06:12:19;8.53;;;3.23;;
18689;SDS011;9782;52.930;15.562;2023-03-05T06:14:46;10.97;;;4.00;;
18689;SDS011;9782;52.930;15.562;2023-03-05T06:17:13;6.73;;;2.30;;
18689;SDS011;9782;52.930;15.562;2023-03-05T06:19:41;5.43;;;2.60;;
18689;SDS011;9782;52.930;15.562;2023-03-05T06:22:08;6.30;;;2.70;;
18689;SDS011;9782;52.930;15.562;2023-03-05T06:24:35;9.13;;;3.03;;
18689;SDS011;9782;52.930;15.562;2023-03-05T06:27:03;12.83;;;2.90;;
18689;SDS011;9782;52.930;15.562;2023-03-05T06:29:30;10.60;;;2.77;;
18689;SDS011;9782;52.930;15.562;2023-03-05T06:31:57;96.87;;;26.63;;
18689;SDS011;9782;52.930;15.562;2023-03-05T06:34:24;13.43;;;5.47;;
18689;SDS011;9782;52.930;15.562;2023-03-05T06:36:52;84.73;;;25.67;;
18689;SDS011;9782;52.930;15.562;2023-03-05T06:39:19;10.57;;;4.27;;
18689;SDS011;9782;52.930;15.562;2023-03-05T06:41:48;8.03;;;3.00;;
18689;SDS011;9782;52.930;15.562;2023-03-05T06:44:15;14.90;;;4.90;;
18689;SDS011;9782;52.930;15.562;2023-03-05T06:46:42;26.10;;;8.67;;
18689;SDS011;9782;52.930;15.562;2023-03-05T06:49:09;7.73;;;4.23;;
18689;SDS011;9782;52.930;15.562;2023-03-05T06:51:37;39.20;;;12.20;;
18689;SDS011;9782;52.930;15.562;2023-03-05T06:54:07;48.17;;;13.87;;
18689;SDS011;9782;52.930;15.562;2023-03-05T06:56:36;60.13;;;15.67;;
18689;SDS011;9782;52.930;15.562;2023-03-05T06:59:05;41.43;;;12.23;;
18689;SDS011;9782;52.930;15.562;2023-03-05T07:01:31;98.00;;;21.50;;
18689;SDS011;9782;52.930;15.562;2023-03-05T07:03:58;119.30;;;25.83;;
18689;SDS011;9782;52.930;15.562;2023-03-05T07:06:27;52.93;;;14.60;;
18689;SDS011;9782;52.930;15.562;2023-03-05T07:08:56;119.47;;;24.83;;
18689;SDS011;9782;52.930;15.562;2023-03-05T07:11:26;72.17;;;16.70;;
18689;SDS011;9782;52.930;15.562;2023-03-05T07:13:54;118.73;;;27.13;;
18689;SDS011;9782;52.930;15.562;2023-03-05T07:16:21;92.60;;;22.77;;
18689;SDS011;9782;52.930;15.562;2023-03-05T07:18:49;58.67;;;14.73;;
18689;SDS011;9782;52.930;15.562;2023-03-05T07:21:17;88.80;;;21.43;;
18689;SDS011;9782;52.930;15.562;2023-03-05T07:23:44;90.37;;;26.03;;
18689;SDS011;9782;52.930;15.562;2023-03-05T07:26:11;124.77;;;32.83;;
18689;SDS011;9782;52.930;15.562;2023-03-05T07:28:40;162.53;;;39.50;;
18689;SDS011;9782;52.930;15.562;2023-03-05T07:31:08;54.10;;;15.73;;
18689;SDS011;9782;52.930;15.562;2023-03-05T07:33:38;50.27;;;13.13;;
18689;SDS011;9782;52.930;15.562;2023-03-05T07:36:06;36.40;;;8.17;;
18689;SDS011;9782;52.930;15.562;2023-03-05T07:38:34;62.40;;;17.77;;
18689;SDS011;9782;52.930;15.562;2023-03-05T07:41:01;20.57;;;8.10;;
18689;SDS011;9782;52.930;15.562;2023-03-05T07:43:29;20.43;;;6.83;;
18689;SDS011;9782;52.930;15.562;2023-03-05T07:45:57;25.83;;;9.23;;
18689;SDS011;9782;52.930;15.562;2023-03-05T07:48:24;19.00;;;7.53;;
18689;SDS011;9782;52.930;15.562;2023-03-05T07:50:58;16.03;;;6.37;;
18689;SDS011;9782;52.930;15.562;2023-03-05T07:53:26;9.73;;;3.50;;
18689;SDS011;9782;52.930;15.562;2023-03-05T07:55:53;12.23;;;4.57;;
18689;SDS011;9782;52.930;15.562;2023-03-05T07:58:20;10.37;;;4.17;;
18689;SDS011;9782;52.930;15.562;2023-03-05T08:00:47;9.77;;;3.70;;
18689;SDS011;9782;52.930;15.562;2023-03-05T08:03:15;8.37;;;4.37;;
18689;SDS011;9782;52.930;15.562;2023-03-05T08:05:42;6.97;;;4.37;;
18689;SDS011;9782;52.930;15.562;2023-03-05T08:08:09;8.33;;;3.07;;
18689;SDS011;9782;52.930;15.562;2023-03-05T08:10:36;6.13;;;3.10;;
18689;SDS011;9782;52.930;15.562;2023-03-05T08:13:03;11.43;;;5.73;;
18689;SDS011;9782;52.930;15.562;2023-03-05T08:15:30;7.83;;;4.93;;
18689;SDS011;9782;52.930;15.562;2023-03-05T08:17:57;10.03;;;5.00;;
18689;SDS011;9782;52.930;15.562;2023-03-05T08:20:25;7.37;;;3.27;;
18689;SDS011;9782;52.930;15.562;2023-03-05T08:22:52;11.20;;;4.33;;
18689;SDS011;9782;52.930;15.562;2023-03-05T08:25:19;12.03;;;4.30;;
18689;SDS011;9782;52.930;15.562;2023-03-05T08:27:47;8.10;;;3.70;;
18689;SDS011;9782;52.930;15.562;2023-03-05T08:30:15;7.67;;;3.40;;
18689;SDS011;9782;52.930;15.562;2023-03-05T08:32:43;8.53;;;3.13;;
18689;SDS011;9782;52.930;15.562;2023-03-05T08:35:10;9.20;;;4.43;;
18689;SDS011;9782;52.930;15.562;2023-03-05T08:37:39;9.63;;;3.30;;
18689;SDS011;9782;52.930;15.562;2023-03-05T08:40:06;16.30;;;6.20;;
18689;SDS011;9782;52.930;15.562;2023-03-05T08:42:34;38.33;;;12.77;;
18689;SDS011;9782;52.930;15.562;2023-03-05T08:45:01;26.90;;;10.07;;
18689;SDS011;9782;52.930;15.562;2023-03-05T08:47:27;9.03;;;4.03;;
18689;SDS011;9782;52.930;15.562;2023-03-05T08:49:54;17.60;;;6.53;;
18689;SDS011;9782;52.930;15.562;2023-03-05T08:52:22;19.57;;;8.13;;
18689;SDS011;9782;52.930;15.562;2023-03-05T08:54:52;23.50;;;10.77;;
18689;SDS011;9782;52.930;15.562;2023-03-05T08:57:19;32.53;;;6.10;;
18689;SDS011;9782;52.930;15.562;2023-03-05T08:59:46;13.47;;;5.43;;
18689;SDS011;9782;52.930;15.562;2023-03-05T09:02:13;12.93;;;6.00;;
18689;SDS011;9782;52.930;15.562;2023-03-05T09:04:40;21.27;;;9.13;;
18689;SDS011;9782;52.930;15.562;2023-03-05T09:07:07;23.67;;;10.00;;
18689;SDS011;9782;52.930;15.562;2023-03-05T09:09:34;23.13;;;8.97;;
18689;SDS011;9782;52.930;15.562;2023-03-05T09:12:03;19.73;;;7.40;;
18689;SDS011;9782;52.930;15.562;2023-03-05T09:14:31;14.37;;;5.53;;
18689;SDS011;9782;52.930;15.562;2023-03-05T09:16:57;14.73;;;6.10;;
18689;SDS011;9782;52.930;15.562;2023-03-05T09:19:24;10.20;;;4.37;;
18689;SDS011;9782;52.930;15.562;2023-03-05T09:21:52;10.60;;;4.27;;
18689;SDS011;9782;52.930;15.562;2023-03-05T09:24:19;18.90;;;6.80;;
18689;SDS011;9782;52.930;15.562;2023-03-05T09:26:45;11.67;;;3.83;;
18689;SDS011;9782;52.930;15.562;2023-03-05T09:29:13;13.83;;;5.50;;
18689;SDS011;9782;52.930;15.562;2023-03-05T09:31:40;10.43;;;4.43;;
18689;SDS011;9782;52.930;15.562;2023-03-05T09:34:09;5.47;;;2.57;;
18689;SDS011;9782;52.930;15.562;2023-03-05T09:36:37;21.90;;;7.17;;
18689;SDS011;9782;52.930;15.562;2023-03-05T09:39:03;25.23;;;8.97;;
18689;SDS011;9782;52.930;15.562;2023-03-05T09:41:34;12.60;;;5.67;;
18689;SDS011;9782;52.930;15.562;2023-03-05T09:44:19;9.87;;;5.03;;
18689;SDS011;9782;52.930;15.562;2023-03-05T09:46:51;11.90;;;5.53;;
18689;SDS011;9782;52.930;15.562;2023-03-05T09:49:22;7.00;;;2.57;;
18689;SDS011;9782;52.930;15.562;2023-03-05T09:52:02;8.13;;;3.70;;
18689;SDS011;9782;52.930;15.562;2023-03-05T09:54:37;7.23;;;2.00;;
18689;SDS011;9782;52.930;15.562;2023-03-05T09:57:10;7.47;;;3.80;;
18689;SDS011;9782;52.930;15.562;2023-03-05T09:59:45;8.50;;;3.57;;
18689;SDS011;9782;52.930;15.562;2023-03-05T10:02:17;9.60;;;4.30;;
18689;SDS011;9782;52.930;15.562;2023-03-05T10:04:47;7.70;;;3.90;;
18689;SDS011;9782;52.930;15.562;2023-03-05T10:07:18;9.00;;;4.40;;
18689;SDS011;9782;52.930;15.562;2023-03-05T10:09:50;13.30;;;7.60;;
18689;SDS011;9782;52.930;15.562;2023-03-05T10:12:22;8.80;;;4.90;;
18689;SDS011;9782;52.930;15.562;2023-03-05T10:14:54;13.20;;;6.63;;
18689;SDS011;9782;52.930;15.562;2023-03-05T10:17:40;18.40;;;8.90;;
18689;SDS011;9782;52.930;15.562;2023-03-05T10:20:32;10.27;;;5.80;;
18689;SDS011;9782;52.930;15.562;2023-03-05T10:23:21;10.60;;;4.87;;
18689;SDS011;9782;52.930;15.562;2023-03-05T10:26:04;9.73;;;5.83;;
18689;SDS011;9782;52.930;15.562;2023-03-05T10:28:42;8.67;;;3.40;;
18689;SDS011;9782;52.930;15.562;2023-03-05T10:31:17;11.67;;;3.13;;
18689;SDS011;9782;52.930;15.562;2023-03-05T10:34:16;5.83;;;2.77;;
18689;SDS011;9782;52.930;15.562;2023-03-05T10:37:04;5.37;;;2.47;;
18689;SDS011;9782;52.930;15.562;2023-03-05T10:39:52;5.43;;;2.77;;
18689;SDS011;9782;52.930;15.562;2023-03-05T10:42:26;8.23;;;2.47;;
18689;SDS011;9782;52.930;15.562;2023-03-05T10:44:56;5.13;;;2.10;;
18689;SDS011;9782;52.930;15.562;2023-03-05T10:47:27;4.70;;;1.73;;
18689;SDS011;9782;52.930;15.562;2023-03-05T10:49:58;5.20;;;2.30;;
18689;SDS011;9782;52.930;15.562;2023-03-05T10:52:26;5.63;;;1.70;;
18689;SDS011;9782;52.930;15.562;2023-03-05T10:54:58;6.33;;;2.93;;
18689;SDS011;9782;52.930;15.562;2023-03-05T10:57:25;7.03;;;2.10;;
18689;SDS011;9782;52.930;15.562;2023-03-05T10:59:53;8.17;;;2.00;;
18689;SDS011;9782;52.930;15.562;2023-03-05T11:02:23;3.50;;;3.10;;
18689;SDS011;9782;52.930;15.562;2023-03-05T11:04:52;4.40;;;2.23;;
18689;SDS011;9782;52.930;15.562;2023-03-05T11:07:35;4.10;;;1.93;;
18689;SDS011;9782;52.930;15.562;2023-03-05T11:10:04;4.13;;;2.03;;
18689;SDS011;9782;52.930;15.562;2023-03-05T11:12:39;4.27;;;1.70;;
18689;SDS011;9782;52.930;15.562;2023-03-05T11:15:20;3.33;;;1.97;;
18689;SDS011;9782;52.930;15.562;2023-03-05T11:18:06;24.17;;;8.40;;
18689;SDS011;9782;52.930;15.562;2023-03-05T11:20:43;23.70;;;8.03;;
18689;SDS011;9782;52.930;15.562;2023-03-05T11:23:11;7.17;;;3.17;;
18689;SDS011;9782;52.930;15.562;2023-03-05T11:25:50;22.37;;;7.63;;
18689;SDS011;9782;52.930;15.562;2023-03-05T11:28:19;33.20;;;12.03;;
18689;SDS011;9782;52.930;15.562;2023-03-05T11:30:53;34.17;;;12.17;;
18689;SDS011;9782;52.930;15.562;2023-03-05T11:33:24;36.83;;;15.07;;
18689;SDS011;9782;52.930;15.562;2023-03-05T11:35:51;41.83;;;16.40;;
18689;SDS011;9782;52.930;15.562;2023-03-05T11:38:36;37.63;;;14.47;;
18689;SDS011;9782;52.930;15.562;2023-03-05T11:41:11;42.87;;;15.50;;
18689;SDS011;9782;52.930;15.562;2023-03-05T11:43:38;38.73;;;15.20;;
18689;SDS011;9782;52.930;15.562;2023-03-05T11:46:08;41.40;;;14.77;;
18689;SDS011;9782;52.930;15.562;2023-03-05T11:48:39;33.33;;;11.40;;
18689;SDS011;9782;52.930;15.562;2023-03-05T11:51:12;59.33;;;19.43;;
18689;SDS011;9782;52.930;15.562;2023-03-05T11:53:43;37.33;;;15.70;;
18689;SDS011;9782;52.930;15.562;2023-03-05T11:56:13;14.60;;;5.60;;
18689;SDS011;9782;52.930;15.562;2023-03-05T11:58:47;19.67;;;7.37;;
18689;SDS011;9782;52.930;15.562;2023-03-05T12:01:17;30.63;;;12.23;;
18689;SDS011;9782;52.930;15.562;2023-03-05T12:03:47;26.10;;;10.27;;
18689;SDS011;9782;52.930;15.562;2023-03-05T12:06:16;41.30;;;14.90;;
18689;SDS011;9782;52.930;15.562;2023-03-05T12:08:48;19.87;;;7.37;;
18689;SDS011;9782;52.930;15.562;2023-03-05T12:11:19;42.03;;;16.80;;
18689;SDS011;9782;52.930;15.562;2023-03-05T12:13:50;29.40;;;12.23;;
18689;SDS011;9782;52.930;15.562;2023-03-05T12:16:22;30.97;;;12.47;;
18689;SDS011;9782;52.930;15.562;2023-03-05T12:18:59;28.90;;;9.40;;
18689;SDS011;9782;52.930;15.562;2023-03-05T12:21:36;30.60;;;12.17;;
18689;SDS011;9782;52.930;15.562;2023-03-05T12:27:06;19.87;;;7.20;;
18689;SDS011;9782;52.930;15.562;2023-03-05T12:29:40;16.67;;;7.07;;
18689;SDS011;9782;52.930;15.562;2023-03-05T12:35:33;16.30;;;10.00;;
18689;SDS011;9782;52.930;15.562;2023-03-05T12:38:04;11.67;;;5.80;;
18689;SDS011;9782;52.930;15.562;2023-03-05T12:40:52;9.73;;;4.97;;
18689;SDS011;9782;52.930;15.562;2023-03-05T12:44:08;13.20;;;6.27;;
18689;SDS011;9782;52.930;15.562;2023-03-05T12:46:45;4.63;;;2.20;;
18689;SDS011;9782;52.930;15.562;2023-03-05T12:49:43;6.70;;;3.27;;
18689;SDS011;9782;52.930;15.562;2023-03-05T12:52:16;3.43;;;2.23;;
18689;SDS011;9782;52.930;15.562;2023-03-05T12:57:43;5.77;;;2.27;;
18689;SDS011;9782;52.930;15.562;2023-03-05T13:00:13;4.97;;;2.57;;
18689;SDS011;9782;52.930;15.562;2023-03-05T13:02:46;3.20;;;1.90;;
18689;SDS011;9782;52.930;15.562;2023-03-05T13:05:20;2.67;;;1.80;;
18689;SDS011;9782;52.930;15.562;2023-03-05T13:07:52;5.33;;;2.43;;
18689;SDS011;9782;52.930;15.562;2023-03-05T13:10:34;2.27;;;1.20;;
18689;SDS011;9782;52.930;15.562;2023-03-05T13:13:00;2.47;;;1.10;;
18689;SDS011;9782;52.930;15.562;2023-03-05T13:15:27;1.90;;;1.30;;
18689;SDS011;9782;52.930;15.562;2023-03-05T13:17:55;3.37;;;0.80;;
18689;SDS011;9782;52.930;15.562;2023-03-05T13:20:26;2.33;;;1.37;;
18689;SDS011;9782;52.930;15.562;2023-03-05T13:23:14;5.37;;;2.30;;
18689;SDS011;9782;52.930;15.562;2023-03-05T13:25:44;1.47;;;0.90;;
18689;SDS011;9782;52.930;15.562;2023-03-05T13:28:22;2.50;;;1.40;;
18689;SDS011;9782;52.930;15.562;2023-03-05T13:30:50;2.80;;;1.17;;
18689;SDS011;9782;52.930;15.562;2023-03-05T13:33:19;3.13;;;1.30;;
18689;SDS011;9782;52.930;15.562;2023-03-05T13:35:49;3.20;;;1.20;;
18689;SDS011;9782;52.930;15.562;2023-03-05T13:38:22;3.23;;;1.77;;
18689;SDS011;9782;52.930;15.562;2023-03-05T13:41:02;3.37;;;1.50;;
18689;SDS011;9782;52.930;15.562;2023-03-05T13:43:44;4.40;;;1.87;;
18689;SDS011;9782;52.930;15.562;2023-03-05T13:46:12;3.10;;;2.17;;
18689;SDS011;9782;52.930;15.562;2023-03-05T13:48:47;4.57;;;2.10;;
18689;SDS011;9782;52.930;15.562;2023-03-05T13:51:14;2.60;;;1.70;;
18689;SDS011;9782;52.930;15.562;2023-03-05T13:53:42;5.10;;;2.30;;
18689;SDS011;9782;52.930;15.562;2023-03-05T13:56:12;1.23;;;1.00;;
18689;SDS011;9782;52.930;15.562;2023-03-05T13:58:43;2.40;;;1.10;;
18689;SDS011;9782;52.930;15.562;2023-03-05T14:01:19;4.93;;;1.53;;
18689;SDS011;9782;52.930;15.562;2023-03-05T14:03:52;4.97;;;2.07;;
18689;SDS011;9782;52.930;15.562;2023-03-05T14:06:21;4.70;;;2.00;;
18689;SDS011;9782;52.930;15.562;2023-03-05T14:08:54;3.67;;;2.17;;
18689;SDS011;9782;52.930;15.562;2023-03-05T14:11:27;6.67;;;2.93;;
18689;SDS011;9782;52.930;15.562;2023-03-05T14:14:00;6.23;;;2.90;;
18689;SDS011;9782;52.930;15.562;2023-03-05T14:16:31;2.97;;;1.10;;
18689;SDS011;9782;52.930;15.562;2023-03-05T14:18:59;5.80;;;2.40;;
18689;SDS011;9782;52.930;15.562;2023-03-05T14:21:41;4.57;;;2.40;;
18689;SDS011;9782;52.930;15.562;2023-03-05T14:24:17;2.33;;;1.40;;
18689;SDS011;9782;52.930;15.562;2023-03-05T14:26:48;4.23;;;2.30;;
18689;SDS011;9782;52.930;15.562;2023-03-05T14:29:16;6.83;;;3.13;;
18689;SDS011;9782;52.930;15.562;2023-03-05T14:31:46;5.53;;;2.30;;
18689;SDS011;9782;52.930;15.562;2023-03-05T14:34:18;9.13;;;3.40;;
18689;SDS011;9782;52.930;15.562;2023-03-05T14:36:48;8.23;;;4.00;;
18689;SDS011;9782;52.930;15.562;2023-03-05T14:39:30;9.70;;;4.60;;
18689;SDS011;9782;52.930;15.562;2023-03-05T14:44:54;12.87;;;6.93;;
18689;SDS011;9782;52.930;15.562;2023-03-05T14:47:22;13.47;;;5.37;;
18689;SDS011;9782;52.930;15.562;2023-03-05T14:49:49;20.80;;;10.50;;
18689;SDS011;9782;52.930;15.562;2023-03-05T14:52:17;10.17;;;4.37;;
18689;SDS011;9782;52.930;15.562;2023-03-05T14:54:47;5.53;;;2.97;;
18689;SDS011;9782;52.930;15.562;2023-03-05T14:57:15;4.37;;;2.60;;
18689;SDS011;9782;52.930;15.562;2023-03-05T14:59:45;3.03;;;2.07;;
18689;SDS011;9782;52.930;15.562;2023-03-05T15:02:13;3.33;;;2.43;;
18689;SDS011;9782;52.930;15.562;2023-03-05T15:04:41;11.17;;;4.37;;
18689;SDS011;9782;52.930;15.562;2023-03-05T15:07:10;3.60;;;1.80;;
18689;SDS011;9782;52.930;15.562;2023-03-05T15:09:42;20.50;;;6.17;;